Time;durP1;ratioP1;P1;durP2;ratioP2;P2;SDS_P1;SDS_P2;PMS_P1;PMS_P2;Temp;Humidity;BMP_temperature;BMP_pressure;BME280_temperature;BME280_humidity;BME280_pressure;Samples;Min_cycle;Max_cycle;Signal;HPM_P1;HPM_P2
2024/01/16 00:08:09;;;;;;;17.45;4.65;;;1.00;99.90;;;;;;6102541;22;87345;-74
2024/01/16 00:10:35;;;;;;;11.18;4.53;;;1.00;99.90;;;;;;6133538;22;89280;-76
2024/01/16 00:20:42;;;;;;;18.00;5.13;;;1.00;99.90;;;;;;6145901;22;86161;-76
2024/01/16 00:28:19;;;;;;;19.02;4.82;;;1.00;99.90;;;;;;6123525;22;87374;-75
2024/01/16 00:30:54;;;;;;;21.02;5.50;;;1.00;99.90;;;;;;6113201;22;87527;-76
2024/01/16 00:33:21;;;;;;;14.90;5.55;;;1.00;99.90;;;;;;6123201;22;86917;-75
2024/01/16 00:35:50;;;;;;;9.48;4.32;;;1.00;99.90;;;;;;6121301;22;87243;-75
2024/01/16 00:40:51;;;;;;;20.95;6.15;;;0.90;99.90;;;;;;6112770;22;87098;-75
2024/01/16 01:09:05;;;;;;;17.38;4.93;;;0.90;99.90;;;;;;6123419;22;88030;-75
2024/01/16 01:16:41;;;;;;;16.70;5.07;;;1.00;99.90;;;;;;6126167;22;87396;-76
2024/01/16 01:29:29;;;;;;;19.38;5.30;;;1.00;99.90;;;;;;6115557;22;86775;-74
2024/01/16 02:01:34;;;;;;;19.02;5.07;;;1.00;99.90;;;;;;5107661;27;85424;-75
2024/01/16 02:04:01;;;;;;;14.07;3.90;;;1.10;99.90;;;;;;5698446;22;87495;-76
2024/01/16 02:06:27;;;;;;;13.13;4.43;;;1.00;99.90;;;;;;5092015;27;85481;-76
2024/01/16 02:08:53;;;;;;;10.18;3.40;;;1.00;99.90;;;;;;5073298;27;85741;-76
2024/01/16 02:11:22;;;;;;;17.20;4.25;;;1.00;99.90;;;;;;5109426;22;86346;-78
2024/01/16 02:13:48;;;;;;;12.82;3.60;;;1.10;99.90;;;;;;5070635;27;86127;-76
2024/01/16 02:16:24;;;;;;;18.10;4.63;;;1.00;99.90;;;;;;5072286;27;85907;-77
2024/01/16 02:18:52;;;;;;;15.82;3.90;;;1.10;99.90;;;;;;5069424;27;87517;-74
2024/01/16 02:21:22;;;;;;;15.93;3.67;;;1.00;99.90;;;;;;5069056;27;85700;-74
2024/01/16 02:23:48;;;;;;;19.67;4.57;;;1.00;99.90;;;;;;5086896;27;87297;-76
2024/01/16 02:26:16;;;;;;;16.25;4.20;;;1.00;99.90;;;;;;5071957;27;85453;-79
2024/01/16 02:28:42;;;;;;;30.05;4.32;;;1.00;99.90;;;;;;5086734;27;86825;-78
2024/01/16 02:31:09;;;;;;;10.10;3.28;;;1.00;99.90;;;;;;5069751;27;88810;-74
2024/01/16 02:33:34;;;;;;;16.13;4.05;;;1.00;99.90;;;;;;5069437;27;86069;-74
2024/01/16 02:36:00;;;;;;;16.52;3.28;;;1.00;99.90;;;;;;5068945;27;85911;-77
2024/01/16 02:38:26;;;;;;;14.68;3.47;;;1.00;99.90;;;;;;5068842;27;87429;-78
2024/01/16 02:40:53;;;;;;;18.08;3.80;;;1.00;99.90;;;;;;5069094;27;85657;-78
2024/01/16 02:43:18;;;;;;;15.02;3.60;;;0.90;99.90;;;;;;5070805;27;86080;-78
2024/01/16 02:45:45;;;;;;;16.52;3.95;;;0.90;99.90;;;;;;5069962;27;86587;-75
2024/01/16 02:48:11;;;;;;;12.13;4.40;;;0.90;99.90;;;;;;5069857;27;85717;-75
2024/01/16 02:50:38;;;;;;;7.65;2.97;;;0.90;99.90;;;;;;5068659;27;86329;-75
2024/01/16 02:53:04;;;;;;;11.38;3.95;;;0.80;99.90;;;;;;5070244;27;86114;-76
2024/01/16 02:55:29;;;;;;;13.98;3.13;;;0.80;99.90;;;;;;5070653;27;85592;-77
2024/01/16 02:57:55;;;;;;;10.77;3.60;;;0.80;99.90;;;;;;5068344;27;85856;-76
2024/01/16 03:00:22;;;;;;;11.82;3.20;;;0.80;99.90;;;;;;5068778;27;85869;-80
2024/01/16 03:02:49;;;;;;;13.32;3.50;;;0.80;99.90;;;;;;5072095;27;86411;-77
2024/01/16 03:05:15;;;;;;;16.40;3.30;;;0.80;99.90;;;;;;5070066;27;86090;-75
2024/01/16 03:07:42;;;;;;;11.90;2.97;;;0.80;99.90;;;;;;5067657;27;86132;-78
2024/01/16 03:10:08;;;;;;;17.02;3.78;;;0.70;99.90;;;;;;5069331;27;86854;-76
2024/01/16 03:12:33;;;;;;;14.15;3.28;;;0.70;99.90;;;;;;5057193;27;87484;-76
2024/01/16 03:14:59;;;;;;;15.90;3.97;;;0.70;99.90;;;;;;5056236;28;85657;-78
2024/01/16 03:17:25;;;;;;;16.85;2.92;;;0.60;99.90;;;;;;5056674;28;85847;-80
2024/01/16 03:19:51;;;;;;;15.00;3.47;;;0.60;99.90;;;;;;5055832;28;85261;-79
2024/01/16 03:22:17;;;;;;;15.25;3.55;;;0.60;99.90;;;;;;5056959;27;85691;-78
2024/01/16 03:24:42;;;;;;;12.55;3.13;;;0.50;99.90;;;;;;5053064;28;85924;-77
2024/01/16 03:27:08;;;;;;;8.82;3.00;;;0.50;99.90;;;;;;5055236;28;85731;-75
2024/01/16 03:29:35;;;;;;;17.92;4.32;;;0.40;99.90;;;;;;5054925;28;85943;-75
2024/01/16 03:32:00;;;;;;;11.82;2.63;;;0.40;99.90;;;;;;5051654;28;85752;-80
2024/01/16 03:34:26;;;;;;;9.13;3.22;;;0.30;99.90;;;;;;5053833;28;85672;-80
2024/01/16 03:36:52;;;;;;;10.15;2.70;;;0.30;99.90;;;;;;5055642;27;85719;-78
2024/01/16 03:39:18;;;;;;;9.02;3.03;;;0.20;99.90;;;;;;5069858;27;87130;-76
2024/01/16 03:41:44;;;;;;;11.02;3.35;;;0.20;99.90;;;;;;5053761;28;86547;-80
2024/01/16 03:44:09;;;;;;;9.13;3.10;;;0.20;99.90;;;;;;5053832;28;85951;-75
2024/01/16 03:46:35;;;;;;;9.90;3.03;;;0.10;99.90;;;;;;5055577;28;85562;-76
2024/01/16 03:49:00;;;;;;;14.65;3.17;;;0.10;99.90;;;;;;5056446;28;86058;-81
2024/01/16 03:51:27;;;;;;;10.57;2.90;;;0.10;99.90;;;;;;5054542;28;86262;-77
2024/01/16 03:53:52;;;;;;;11.25;3.17;;;0.00;99.90;;;;;;5053628;28;86090;-77
2024/01/16 03:56:18;;;;;;;14.45;2.80;;;0.00;99.90;;;;;;5054008;28;85636;-77
2024/01/16 03:58:44;;;;;;;9.75;2.65;;;0.00;99.90;;;;;;5054002;28;86794;-76
2024/01/16 04:01:10;;;;;;;9.40;3.42;;;0.00;99.90;;;;;;5053203;28;85860;-81
2024/01/16 04:03:38;;;;;;;10.13;3.53;;;0.00;99.90;;;;;;5053998;27;86170;-80
2024/01/16 04:06:04;;;;;;;13.40;2.97;;;0.00;99.90;;;;;;5052941;28;86410;-79
2024/01/16 04:08:29;;;;;;;8.45;2.72;;;0.00;99.90;;;;;;5053022;28;85923;-75
2024/01/16 04:10:56;;;;;;;8.80;3.03;;;-0.10;99.90;;;;;;5052588;28;86284;-75
2024/01/16 04:13:22;;;;;;;15.60;3.80;;;-0.10;99.90;;;;;;5052971;28;85418;-80
2024/01/16 04:15:48;;;;;;;8.85;3.50;;;-0.10;99.90;;;;;;5051265;28;88119;-75
2024/01/16 04:18:14;;;;;;;14.02;3.63;;;-0.10;99.90;;;;;;5067720;27;87557;-81
2024/01/16 04:20:40;;;;;;;8.98;3.45;;;-0.10;99.90;;;;;;5067420;27;86185;-77
2024/01/16 04:23:06;;;;;;;14.25;3.28;;;-0.20;99.90;;;;;;5051178;27;86145;-76
2024/01/16 04:25:32;;;;;;;12.48;3.83;;;-0.20;99.90;;;;;;5051537;28;86689;-83
2024/01/16 04:27:58;;;;;;;18.05;4.20;;;-0.20;99.90;;;;;;5052024;27;86104;-78
2024/01/16 04:30:25;;;;;;;14.57;4.45;;;-0.30;99.90;;;;;;5052449;28;86041;-79
2024/01/16 04:32:51;;;;;;;15.27;3.95;;;-0.30;99.90;;;;;;5051300;28;85895;-76
2024/01/16 04:35:17;;;;;;;16.30;3.58;;;-0.30;99.90;;;;;;5051446;28;85787;-78
2024/01/16 04:37:42;;;;;;;9.98;3.95;;;-0.30;99.90;;;;;;5050833;28;86038;-79
2024/01/16 04:40:09;;;;;;;17.00;3.78;;;-0.30;99.90;;;;;;5050704;28;86600;-76
2024/01/16 04:42:35;;;;;;;13.05;3.95;;;-0.30;99.90;;;;;;5050121;28;85683;-78
2024/01/16 04:45:01;;;;;;;16.25;4.57;;;-0.30;99.90;;;;;;5050726;28;87189;-80
2024/01/16 04:47:27;;;;;;;15.02;5.20;;;-0.40;99.90;;;;;;5051207;28;85891;-78
2024/01/16 04:49:53;;;;;;;23.60;4.40;;;-0.40;99.90;;;;;;5050147;28;86195;-77
2024/01/16 04:52:18;;;;;;;13.13;4.80;;;-0.40;99.90;;;;;;5052711;27;86039;-75
2024/01/16 04:54:45;;;;;;;11.25;4.88;;;-0.40;99.90;;;;;;5053669;27;85611;-75
2024/01/16 04:57:12;;;;;;;15.02;5.07;;;-0.40;99.90;;;;;;5051809;27;85523;-77
2024/01/16 04:59:37;;;;;;;16.42;4.47;;;-0.40;99.90;;;;;;5050043;27;86142;-79
2024/01/16 05:02:03;;;;;;;18.58;5.75;;;-0.40;99.90;;;;;;5049457;27;85996;-77
2024/01/16 05:04:29;;;;;;;13.73;5.03;;;-0.50;99.90;;;;;;5051001;28;86793;-77
2024/01/16 05:06:55;;;;;;;16.65;4.65;;;-0.50;99.90;;;;;;5052474;28;86340;-78
2024/01/16 05:09:21;;;;;;;19.33;4.88;;;-0.50;99.90;;;;;;5051043;28;86359;-77
2024/01/16 05:11:48;;;;;;;12.88;3.95;;;-0.60;99.90;;;;;;5050921;28;86417;-76
2024/01/16 05:14:13;;;;;;;20.90;5.13;;;-0.60;99.90;;;;;;5050822;28;85673;-76
2024/01/16 05:16:40;;;;;;;11.73;4.10;;;-0.60;99.90;;;;;;5052126;28;85106;-76
2024/01/16 05:19:05;;;;;;;19.55;4.60;;;-0.70;99.90;;;;;;5049043;28;85668;-78
2024/01/16 05:21:31;;;;;;;14.25;4.57;;;-0.70;99.90;;;;;;5051713;27;85827;-78
2024/01/16 05:23:57;;;;;;;15.43;4.72;;;-0.70;99.90;;;;;;5051292;28;86492;-78
2024/01/16 05:26:23;;;;;;;17.00;4.70;;;-0.80;99.90;;;;;;5049361;28;85764;-80
2024/01/16 05:28:49;;;;;;;19.77;4.70;;;-0.80;99.90;;;;;;5049535;28;86185;-78
2024/01/16 05:31:15;;;;;;;17.05;4.57;;;-0.90;99.90;;;;;;5048720;28;86005;-77
2024/01/16 05:33:41;;;;;;;11.77;4.90;;;-0.80;99.90;;;;;;5051071;28;86068;-77
2024/01/16 05:36:07;;;;;;;17.13;4.47;;;-0.90;99.90;;;;;;5050196;28;85766;-76
2024/01/16 05:38:33;;;;;;;18.52;6.15;;;-0.90;99.90;;;;;;5051161;27;86027;-78
2024/01/16 05:40:59;;;;;;;16.58;4.65;;;-1.00;99.90;;;;;;5051796;28;85896;-77
2024/01/16 05:43:25;;;;;;;14.13;5.40;;;-0.90;99.90;;;;;;5050329;28;86587;-77
2024/01/16 05:45:51;;;;;;;13.85;4.80;;;-1.00;99.90;;;;;;5053456;28;86194;-80
2024/01/16 05:48:19;;;;;;;17.55;4.53;;;-1.00;99.90;;;;;;5052833;28;86336;-80
2024/01/16 05:50:44;;;;;;;15.05;4.47;;;-1.00;99.90;;;;;;5052459;27;85648;-78
2024/01/16 05:53:10;;;;;;;16.60;4.55;;;-1.00;99.90;;;;;;5052315;27;85430;-77
2024/01/16 05:55:36;;;;;;;16.17;5.03;;;-1.10;99.90;;;;;;5051396;27;86330;-76
2024/01/16 05:58:02;;;;;;;12.63;4.78;;;-1.10;99.90;;;;;;5049994;27;86078;-75
2024/01/16 06:00:28;;;;;;;21.10;5.68;;;-1.10;99.90;;;;;;5050991;28;85898;-79
2024/01/16 06:02:54;;;;;;;16.73;4.75;;;-1.20;99.90;;;;;;5050569;28;85959;-78
2024/01/16 06:05:20;;;;;;;15.27;4.68;;;-1.20;99.90;;;;;;5050336;28;86350;-77
2024/01/16 06:07:46;;;;;;;15.32;4.28;;;-1.20;99.90;;;;;;5051038;28;86304;-78
2024/01/16 06:10:14;;;;;;;13.68;4.35;;;-1.20;99.90;;;;;;5053065;27;85599;-78
2024/01/16 06:12:40;;;;;;;17.77;5.10;;;-1.30;99.90;;;;;;5051727;28;85839;-75
2024/01/16 06:15:07;;;;;;;15.85;5.15;;;-1.30;99.90;;;;;;5051402;28;86084;-77
2024/01/16 06:17:32;;;;;;;19.55;4.82;;;-1.30;99.90;;;;;;5050240;28;86189;-76
2024/01/16 06:19:58;;;;;;;16.65;5.13;;;-1.30;99.90;;;;;;5051120;27;86683;-79
2024/01/16 06:22:23;;;;;;;14.77;4.85;;;-1.30;99.90;;;;;;5052523;27;86008;-80
2024/01/16 06:24:50;;;;;;;23.50;5.95;;;-1.40;99.90;;;;;;5052637;28;85792;-75
2024/01/16 06:27:18;;;;;;;19.20;5.53;;;-1.40;99.90;;;;;;5052770;28;85425;-78
2024/01/16 06:29:48;;;;;;;18.17;5.15;;;-1.40;99.90;;;;;;5051564;28;85228;-81
2024/01/16 06:32:14;;;;;;;18.08;4.55;;;-1.40;99.90;;;;;;5050263;28;86466;-74
2024/01/16 06:34:40;;;;;;;11.57;4.47;;;-1.50;99.90;;;;;;5049172;28;86350;-79
2024/01/16 06:37:06;;;;;;;20.90;6.20;;;-1.50;99.90;;;;;;5050520;28;85948;-75
2024/01/16 06:39:33;;;;;;;25.60;6.47;;;-1.50;99.90;;;;;;5050598;28;86008;-76
2024/01/16 06:41:59;;;;;;;18.70;6.40;;;-1.50;99.90;;;;;;5052051;27;85803;-80
2024/01/16 06:44:26;;;;;;;26.52;5.97;;;-1.60;99.90;;;;;;5050107;28;87195;-76
2024/01/16 06:46:52;;;;;;;18.55;5.82;;;-1.60;99.90;;;;;;5068323;27;85497;-75
2024/01/16 06:49:17;;;;;;;18.60;5.95;;;-1.60;99.90;;;;;;5070517;27;86064;-75
2024/01/16 06:51:43;;;;;;;23.83;6.03;;;-1.60;99.90;;;;;;5053926;27;87586;-80
2024/01/16 06:54:09;;;;;;;21.90;6.18;;;-1.70;99.90;;;;;;5054144;27;85633;-80
2024/01/16 06:59:58;;;;;;;23.02;6.18;;;-1.70;99.90;;;;;;5056956;28;85465;-76
2024/01/16 07:02:25;;;;;;;26.17;6.53;;;-1.70;99.90;;;;;;5056303;28;86458;-76
2024/01/16 07:04:50;;;;;;;21.13;5.85;;;-1.80;99.90;;;;;;5056691;28;85824;-76
2024/01/16 07:07:16;;;;;;;13.50;5.20;;;-1.80;99.90;;;;;;5055552;28;85559;-78
2024/01/16 07:09:42;;;;;;;18.13;6.13;;;-1.80;99.90;;;;;;5056378;28;85527;-76
2024/01/16 07:12:08;;;;;;;20.48;5.63;;;-1.80;99.90;;;;;;5055973;28;86292;-77
2024/01/16 07:14:36;;;;;;;17.02;5.35;;;-1.80;99.90;;;;;;5054899;28;85561;-81
2024/01/16 07:17:02;;;;;;;26.10;7.35;;;-1.80;99.90;;;;;;5056521;28;85740;-78
2024/01/16 07:19:28;;;;;;;17.67;5.85;;;-1.90;99.90;;;;;;5056541;27;86180;-76
2024/01/16 07:21:54;;;;;;;15.60;5.40;;;-1.80;99.90;;;;;;5054276;28;86129;-77
2024/01/16 07:24:19;;;;;;;16.48;5.18;;;-1.80;99.90;;;;;;5054248;28;86214;-76
2024/01/16 07:26:45;;;;;;;18.45;6.32;;;-1.80;99.90;;;;;;5055431;27;85983;-75
2024/01/16 07:29:12;;;;;;;21.33;6.53;;;-1.80;99.90;;;;;;5053507;27;87448;-78
2024/01/16 07:31:37;;;;;;;18.33;5.80;;;-1.80;99.90;;;;;;5053056;28;86816;-76
2024/01/16 07:34:03;;;;;;;17.27;5.97;;;-1.80;99.90;;;;;;5053341;28;85727;-76
2024/01/16 07:36:31;;;;;;;23.10;6.88;;;-1.80;99.90;;;;;;5054096;28;85726;-78
2024/01/16 07:38:57;;;;;;;17.77;5.57;;;-1.80;99.90;;;;;;5057713;28;85559;-76
2024/01/16 07:41:23;;;;;;;16.00;5.00;;;-1.80;99.90;;;;;;5053499;28;86682;-76
2024/01/16 07:43:49;;;;;;;20.42;4.97;;;-1.80;99.90;;;;;;5052461;28;85478;-77
2024/01/16 07:46:16;;;;;;;14.10;5.28;;;-1.70;99.90;;;;;;5054312;28;87299;-77
2024/01/16 07:48:41;;;;;;;21.13;6.38;;;-1.70;99.90;;;;;;5054335;27;85031;-79
2024/01/16 07:51:07;;;;;;;14.25;5.63;;;-1.70;99.90;;;;;;5051849;28;87634;-77
2024/01/16 07:53:33;;;;;;;14.07;5.15;;;-1.70;99.90;;;;;;5052472;28;85882;-75
2024/01/16 07:55:59;;;;;;;20.33;6.65;;;-1.60;99.90;;;;;;5053426;28;85890;-82
2024/01/16 07:58:25;;;;;;;14.75;5.80;;;-1.60;99.90;;;;;;5052497;27;85647;-76
2024/01/16 08:00:51;;;;;;;18.23;6.65;;;-1.60;99.90;;;;;;5051902;28;85756;-75
2024/01/16 08:03:17;;;;;;;28.70;8.15;;;-1.50;99.90;;;;;;5053086;28;85628;-80
2024/01/16 08:05:43;;;;;;;16.55;5.47;;;-1.50;99.90;;;;;;5053343;28;85675;-76
2024/01/16 08:08:09;;;;;;;25.75;5.90;;;-1.50;99.90;;;;;;5053196;28;86064;-75
2024/01/16 08:10:36;;;;;;;19.90;5.80;;;-1.40;99.90;;;;;;5052803;27;85689;-78
2024/01/16 08:13:03;;;;;;;26.85;6.70;;;-1.40;99.90;;;;;;5052735;28;85755;-76
2024/01/16 08:15:28;;;;;;;26.05;6.68;;;-1.30;99.90;;;;;;5053586;27;85627;-76
2024/01/16 08:17:54;;;;;;;22.65;6.10;;;-1.20;99.90;;;;;;5053988;28;85921;-76
2024/01/16 08:20:20;;;;;;;22.77;6.63;;;-1.20;99.90;;;;;;5048220;27;86858;-81
2024/01/16 08:22:45;;;;;;;22.77;6.53;;;-1.10;99.90;;;;;;5047064;28;85883;-80
2024/01/16 08:25:11;;;;;;;15.85;5.70;;;-1.10;99.90;;;;;;5048883;27;85711;-78
2024/01/16 08:27:37;;;;;;;16.75;5.57;;;-1.00;99.90;;;;;;5048961;28;85611;-79
2024/01/16 08:30:05;;;;;;;20.95;6.15;;;-1.00;99.90;;;;;;5034685;27;86503;-79
2024/01/16 08:32:31;;;;;;;20.55;6.78;;;-1.00;99.90;;;;;;5029321;28;85707;-77
2024/01/16 08:34:57;;;;;;;21.42;6.60;;;-0.90;99.90;;;;;;5028131;28;86038;-78
2024/01/16 08:37:23;;;;;;;22.85;5.88;;;-0.90;99.90;;;;;;5028542;28;85409;-77
2024/01/16 08:39:49;;;;;;;16.70;5.05;;;-0.90;99.90;;;;;;5026977;28;89007;-77
2024/01/16 08:42:17;;;;;;;19.20;5.43;;;-0.80;99.90;;;;;;5030507;28;86016;-78
2024/01/16 08:44:43;;;;;;;25.42;6.22;;;-0.80;99.90;;;;;;5033068;28;85702;-78
2024/01/16 08:47:09;;;;;;;25.75;6.10;;;-0.80;99.90;;;;;;5031133;28;85764;-77
2024/01/16 08:49:35;;;;;;;17.40;5.32;;;-0.70;99.90;;;;;;5031582;28;85782;-79
2024/01/16 08:52:02;;;;;;;16.73;6.10;;;-0.70;99.90;;;;;;5034153;28;85448;-76
2024/01/16 08:54:28;;;;;;;18.33;5.68;;;-0.70;99.90;;;;;;5021275;28;86819;-78
2024/01/16 08:56:54;;;;;;;14.93;5.60;;;-0.70;99.90;;;;;;5008985;28;86459;-77
2024/01/16 08:59:20;;;;;;;19.20;6.28;;;-0.60;99.90;;;;;;5009084;28;87465;-76
2024/01/16 09:01:47;;;;;;;16.27;6.10;;;-0.60;99.90;;;;;;5014767;28;86563;-81
2024/01/16 09:04:14;;;;;;;15.30;5.72;;;-0.60;99.90;;;;;;5010011;28;86463;-77
2024/01/16 09:06:40;;;;;;;23.55;5.82;;;-0.50;99.90;;;;;;5011611;28;86492;-77
2024/01/16 09:09:06;;;;;;;16.08;5.82;;;-0.50;99.90;;;;;;5011562;28;86731;-77
2024/01/16 09:11:33;;;;;;;18.20;5.28;;;-0.50;99.90;;;;;;5012022;28;86820;-77
2024/01/16 09:13:59;;;;;;;21.17;6.22;;;-0.50;99.90;;;;;;5011208;28;86937;-77
2024/01/16 09:16:25;;;;;;;14.80;5.60;;;-0.40;99.90;;;;;;5014821;28;86393;-76
2024/01/16 09:18:51;;;;;;;13.15;5.93;;;-0.40;99.90;;;;;;5013936;28;87648;-76
2024/01/16 09:21:17;;;;;;;15.75;5.10;;;-0.40;99.90;;;;;;5014623;28;87282;-76
2024/01/16 09:23:43;;;;;;;12.55;5.40;;;-0.30;99.90;;;;;;5014216;28;86265;-76
2024/01/16 09:26:10;;;;;;;16.52;5.45;;;-0.30;99.90;;;;;;5014351;28;86209;-77
2024/01/16 09:28:36;;;;;;;13.68;5.75;;;-0.30;99.90;;;;;;5011432;28;87772;-76
2024/01/16 09:31:02;;;;;;;16.75;5.47;;;-0.20;99.90;;;;;;5011399;28;87352;-76
2024/01/16 09:33:27;;;;;;;13.70;5.35;;;-0.20;99.90;;;;;;5009982;28;86086;-77
2024/01/16 09:35:54;;;;;;;14.20;5.00;;;-0.20;99.90;;;;;;5011356;28;86602;-77
2024/01/16 09:38:20;;;;;;;13.55;5.53;;;-0.20;99.90;;;;;;5013636;28;87557;-77
2024/01/16 09:40:47;;;;;;;13.43;5.70;;;-0.10;99.90;;;;;;5014082;28;86718;-78
2024/01/16 09:43:14;;;;;;;13.77;5.03;;;-0.20;99.90;;;;;;5011873;28;85861;-76
2024/01/16 09:45:40;;;;;;;13.68;5.00;;;-0.10;99.90;;;;;;5011506;28;87114;-77
2024/01/16 09:48:08;;;;;;;18.85;5.50;;;-0.10;99.90;;;;;;5011953;28;86508;-76
2024/01/16 09:50:33;;;;;;;18.92;5.90;;;-0.10;99.90;;;;;;5012569;28;87006;-76
2024/01/16 09:52:59;;;;;;;12.73;5.03;;;-0.10;99.90;;;;;;5014041;28;86487;-76
2024/01/16 09:55:25;;;;;;;12.73;5.72;;;-0.10;99.90;;;;;;5011746;28;85937;-76
2024/01/16 09:57:55;;;;;;;9.63;5.13;;;-0.10;99.90;;;;;;5008946;28;87038;-75
2024/01/16 10:00:24;;;;;;;13.90;6.35;;;-0.10;99.90;;;;;;5011212;28;86232;-77
2024/01/16 10:02:50;;;;;;;15.23;5.80;;;0.00;99.90;;;;;;5010941;28;86327;-77
2024/01/16 10:05:17;;;;;;;12.88;6.07;;;0.00;99.90;;;;;;5010761;28;86769;-77
2024/01/16 10:07:45;;;;;;;13.77;5.78;;;0.00;99.90;;;;;;5009560;28;88161;-76
2024/01/16 10:10:12;;;;;;;12.98;5.20;;;0.10;99.90;;;;;;5028629;28;86541;-80
2024/01/16 10:12:43;;;;;;;17.60;6.25;;;0.20;99.90;;;;;;5067585;22;87950;-78
2024/01/16 10:15:13;;;;;;;12.95;5.20;;;0.30;99.90;;;;;;5144119;22;86554;-79
2024/01/16 10:17:44;;;;;;;17.90;6.90;;;0.30;99.90;;;;;;5045113;27;86745;-77
2024/01/16 10:20:16;;;;;;;14.85;5.18;;;0.30;99.90;;;;;;5274931;22;85778;-77
2024/01/16 10:30:29;;;;;;;16.85;5.18;;;0.50;99.90;;;;;;5326077;22;87519;-75
2024/01/16 10:58:44;;;;;;;12.00;4.78;;;1.20;99.90;;;;;;5740944;22;87378;-78
2024/01/16 11:01:16;;;;;;;16.20;5.45;;;1.20;99.90;;;;;;5663452;22;87359;-76
2024/01/16 11:03:49;;;;;;;15.40;5.15;;;1.30;99.90;;;;;;5002750;28;85738;-75
2024/01/16 11:06:18;;;;;;;16.23;5.17;;;1.30;99.90;;;;;;5470071;22;86808;-75
2024/01/16 11:08:51;;;;;;;11.20;5.03;;;1.40;99.90;;;;;;5162289;22;86957;-76
2024/01/16 11:13:53;;;;;;;13.88;5.45;;;1.70;99.90;;;;;;5400478;22;87450;-76
2024/01/16 11:16:20;;;;;;;14.60;5.43;;;1.70;99.90;;;;;;4997511;28;85812;-76
2024/01/16 11:18:45;;;;;;;15.23;5.50;;;1.80;99.90;;;;;;5180513;22;87346;-75
2024/01/16 11:21:14;;;;;;;11.20;5.05;;;1.90;99.90;;;;;;4964084;28;85654;-76
2024/01/16 11:23:40;;;;;;;13.80;5.15;;;2.00;99.90;;;;;;4947727;28;85860;-77
2024/01/16 11:41:55;;;;;;;11.32;4.38;;;2.20;99.90;;;;;;5754221;22;87372;-76
2024/01/16 11:44:37;;;;;;;13.02;5.30;;;2.30;99.90;;;;;;5004146;28;85980;-76
2024/01/16 11:47:05;;;;;;;18.20;6.30;;;2.30;99.90;;;;;;5000548;28;85600;-76
2024/01/16 11:49:31;;;;;;;15.07;4.97;;;2.40;99.90;;;;;;4997627;28;86496;-77
2024/01/16 11:51:58;;;;;;;15.73;5.38;;;2.40;99.90;;;;;;4997275;28;87355;-76
2024/01/16 11:54:23;;;;;;;11.55;4.55;;;2.30;99.90;;;;;;4997624;28;85549;-76
2024/01/16 11:57:11;;;;;;;9.98;4.57;;;2.40;99.90;;;;;;5666295;22;86244;-75
2024/01/16 12:05:03;;;;;;;16.42;6.32;;;2.50;99.90;;;;;;5768814;22;86834;-76
